sensor_id;sensor_type;location;lat;lon;timestamp;pressure;altitude;pressure_sealevel;temperature;humidity
8573;BME280;4324;42.012;24.872;2022-08-14T00:00:08;98183.06;;;25.14;55.07
8573;BME280;4324;42.012;24.872;2022-08-14T00:02:36;98182.22;;;25.14;55.24
8573;BME280;4324;42.012;24.872;2022-08-14T00:05:04;98183.31;;;25.13;55.19
8573;BME280;4324;42.012;24.872;2022-08-14T00:07:31;98172.78;;;25.11;55.15
8573;BME280;4324;42.012;24.872;2022-08-14T00:09:59;98177.63;;;25.14;54.89
8573;BME280;4324;42.012;24.872;2022-08-14T00:12:27;98176.25;;;25.17;55.08
8573;BME280;4324;42.012;24.872;2022-08-14T00:14:55;98180.81;;;25.21;54.90
8573;BME280;4324;42.012;24.872;2022-08-14T00:17:22;98178.66;;;25.23;54.61
8573;BME280;4324;42.012;24.872;2022-08-14T00:19:51;98167.03;;;25.18;54.84
8573;BME280;4324;42.012;24.872;2022-08-14T00:22:18;98169.16;;;25.21;54.81
8573;BME280;4324;42.012;24.872;2022-08-14T00:24:45;98160.84;;;25.12;55.04
8573;BME280;4324;42.012;24.872;2022-08-14T00:27:12;98167.56;;;25.20;54.76
8573;BME280;4324;42.012;24.872;2022-08-14T00:29:39;98163.75;;;25.21;54.58
8573;BME280;4324;42.012;24.872;2022-08-14T00:32:07;98160.50;;;25.24;54.72
8573;BME280;4324;42.012;24.872;2022-08-14T00:34:34;98137.75;;;25.20;54.38
8573;BME280;4324;42.012;24.872;2022-08-14T00:37:01;98156.16;;;25.23;54.67
8573;BME280;4324;42.012;24.872;2022-08-14T00:39:30;98148.84;;;25.23;54.40
8573;BME280;4324;42.012;24.872;2022-08-14T00:41:57;98145.84;;;25.25;54.31
8573;BME280;4324;42.012;24.872;2022-08-14T00:44:24;98150.19;;;25.26;54.54
8573;BME280;4324;42.012;24.872;2022-08-14T00:46:50;98143.13;;;25.25;54.51
8573;BME280;4324;42.012;24.872;2022-08-14T00:49:19;98143.72;;;25.22;54.60
8573;BME280;4324;42.012;24.872;2022-08-14T00:51:47;98149.66;;;25.24;54.45
8573;BME280;4324;42.012;24.872;2022-08-14T00:54:14;98113.16;;;25.06;54.58
8573;BME280;4324;42.012;24.872;2022-08-14T00:56:41;98140.19;;;25.21;54.79
8573;BME280;4324;42.012;24.872;2022-08-14T00:59:08;98136.72;;;25.16;54.51
8573;BME280;4324;42.012;24.872;2022-08-14T01:01:36;98130.25;;;25.12;54.52
8573;BME280;4324;42.012;24.872;2022-08-14T01:04:03;98134.56;;;25.07;54.95
8573;BME280;4324;42.012;24.872;2022-08-14T01:06:32;98104.06;;;24.92;54.91
8573;BME280;4324;42.012;24.872;2022-08-14T01:09:00;98123.81;;;24.97;54.66
8573;BME280;4324;42.012;24.872;2022-08-14T01:11:27;98132.94;;;25.06;54.57
8573;BME280;4324;42.012;24.872;2022-08-14T01:13:55;98124.31;;;25.04;54.83
8573;BME280;4324;42.012;24.872;2022-08-14T01:16:26;98125.34;;;25.08;54.51
8573;BME280;4324;42.012;24.872;2022-08-14T01:18:55;98121.53;;;25.09;54.52
8573;BME280;4324;42.012;24.872;2022-08-14T01:21:41;98129.69;;;25.15;54.43
8573;BME280;4324;42.012;24.872;2022-08-14T01:24:10;98131.03;;;25.12;54.65
8573;BME280;4324;42.012;24.872;2022-08-14T01:26:40;98133.47;;;25.14;54.50
8573;BME280;4324;42.012;24.872;2022-08-14T01:29:07;98137.78;;;25.09;54.51
8573;BME280;4324;42.012;24.872;2022-08-14T01:31:37;98132.69;;;25.03;54.64
8573;BME280;4324;42.012;24.872;2022-08-14T01:34:07;98073.16;;;24.58;55.09
8573;BME280;4324;42.012;24.872;2022-08-14T01:36:35;98134.63;;;24.97;54.98
8573;BME280;4324;42.012;24.872;2022-08-14T01:39:07;98128.41;;;24.97;54.88
8573;BME280;4324;42.012;24.872;2022-08-14T01:41:35;98121.16;;;24.92;55.04
8573;BME280;4324;42.012;24.872;2022-08-14T01:44:05;98120.56;;;24.95;54.79
8573;BME280;4324;42.012;24.872;2022-08-14T01:46:35;98116.00;;;24.91;54.72
8573;BME280;4324;42.012;24.872;2022-08-14T01:49:05;98112.53;;;24.85;54.92
8573;BME280;4324;42.012;24.872;2022-08-14T01:51:33;98122.50;;;24.90;54.84
8573;BME280;4324;42.012;24.872;2022-08-14T01:54:06;98108.75;;;24.81;55.04
8573;BME280;4324;42.012;24.872;2022-08-14T01:56:34;98121.75;;;24.79;55.27
8573;BME280;4324;42.012;24.872;2022-08-14T01:59:04;98105.56;;;24.74;54.93
8573;BME280;4324;42.012;24.872;2022-08-14T02:01:32;98124.16;;;24.80;55.28
8573;BME280;4324;42.012;24.872;2022-08-14T02:04:00;98126.38;;;24.78;55.53
8573;BME280;4324;42.012;24.872;2022-08-14T02:06:27;98122.03;;;24.77;55.33
8573;BME280;4324;42.012;24.872;2022-08-14T02:08:55;98116.66;;;24.72;55.71
8573;BME280;4324;42.012;24.872;2022-08-14T02:11:24;98106.06;;;24.76;55.35
8573;BME280;4324;42.012;24.872;2022-08-14T02:13:54;98103.41;;;24.71;55.30
8573;BME280;4324;42.012;24.872;2022-08-14T02:16:24;98113.63;;;24.79;55.28
8573;BME280;4324;42.012;24.872;2022-08-14T02:18:53;98108.78;;;24.76;55.24
8573;BME280;4324;42.012;24.872;2022-08-14T02:21:20;98104.47;;;24.75;55.00
8573;BME280;4324;42.012;24.872;2022-08-14T02:23:49;98102.59;;;24.65;55.11
8573;BME280;4324;42.012;24.872;2022-08-14T02:26:19;98087.81;;;24.47;55.39
8573;BME280;4324;42.012;24.872;2022-08-14T02:28:50;98107.31;;;24.49;56.12
8573;BME280;4324;42.012;24.872;2022-08-14T02:31:18;98091.38;;;24.32;56.30
8573;BME280;4324;42.012;24.872;2022-08-14T02:33:46;98103.53;;;24.35;56.93
8573;BME280;4324;42.012;24.872;2022-08-14T02:36:14;98104.38;;;24.41;57.06
8573;BME280;4324;42.012;24.872;2022-08-14T02:38:42;98102.44;;;24.36;56.59
8573;BME280;4324;42.012;24.872;2022-08-14T02:41:10;98097.66;;;24.23;56.94
8573;BME280;4324;42.012;24.872;2022-08-14T02:43:39;98104.72;;;24.19;57.27
8573;BME280;4324;42.012;24.872;2022-08-14T02:46:09;98109.06;;;24.14;57.30
8573;BME280;4324;42.012;24.872;2022-08-14T02:48:40;98111.75;;;24.14;57.62
8573;BME280;4324;42.012;24.872;2022-08-14T02:51:10;98099.28;;;24.13;57.71
8573;BME280;4324;42.012;24.872;2022-08-14T02:53:38;98103.59;;;24.20;57.69
8573;BME280;4324;42.012;24.872;2022-08-14T02:56:07;98101.72;;;24.25;58.04
8573;BME280;4324;42.012;24.872;2022-08-14T02:58:36;98098.16;;;24.30;57.79
8573;BME280;4324;42.012;24.872;2022-08-14T03:01:04;98066.84;;;24.13;57.65
8573;BME280;4324;42.012;24.872;2022-08-14T03:03:33;98090.06;;;24.30;57.68
8573;BME280;4324;42.012;24.872;2022-08-14T03:06:02;98096.28;;;24.30;57.50
8573;BME280;4324;42.012;24.872;2022-08-14T03:08:30;98084.66;;;24.25;57.87
8573;BME280;4324;42.012;24.872;2022-08-14T03:10:58;98093.28;;;24.32;57.79
8573;BME280;4324;42.012;24.872;2022-08-14T03:13:26;98096.22;;;24.35;57.80
8573;BME280;4324;42.012;24.872;2022-08-14T03:15:53;98084.09;;;24.33;57.76
8573;BME280;4324;42.012;24.872;2022-08-14T03:18:20;98089.47;;;24.43;57.98
8573;BME280;4324;42.012;24.872;2022-08-14T03:20:50;98085.16;;;24.42;57.40
8573;BME280;4324;42.012;24.872;2022-08-14T03:23:17;98078.13;;;24.41;57.49
8573;BME280;4324;42.012;24.872;2022-08-14T03:25:45;98074.88;;;24.39;57.27
8573;BME280;4324;42.012;24.872;2022-08-14T03:28:13;98072.44;;;24.37;57.37
8573;BME280;4324;42.012;24.872;2022-08-14T03:30:40;98063.22;;;24.38;57.59
8573;BME280;4324;42.012;24.872;2022-08-14T03:33:09;98058.09;;;24.32;57.46
8573;BME280;4324;42.012;24.872;2022-08-14T03:35:39;98056.50;;;24.31;57.11
8573;BME280;4324;42.012;24.872;2022-08-14T03:38:10;98065.41;;;24.36;57.14
8573;BME280;4324;42.012;24.872;2022-08-14T03:40:38;98064.06;;;24.39;57.07
8573;BME280;4324;42.012;24.872;2022-08-14T03:43:07;98069.47;;;24.39;56.98
8573;BME280;4324;42.012;24.872;2022-08-14T03:45:35;98067.81;;;24.43;57.10
8573;BME280;4324;42.012;24.872;2022-08-14T03:48:09;98063.50;;;24.42;56.82
8573;BME280;4324;42.012;24.872;2022-08-14T03:50:44;98068.63;;;24.49;56.84
8573;BME280;4324;42.012;24.872;2022-08-14T03:53:14;98051.88;;;24.42;56.68
8573;BME280;4324;42.012;24.872;2022-08-14T03:55:41;98087.81;;;24.52;56.51
8573;BME280;4324;42.012;24.872;2022-08-14T03:58:09;98091.06;;;24.49;56.78
8573;BME280;4324;42.012;24.872;2022-08-14T04:00:38;98091.38;;;24.43;56.69
8573;BME280;4324;42.012;24.872;2022-08-14T04:03:06;98091.63;;;24.36;57.04
8573;BME280;4324;42.012;24.872;2022-08-14T04:05:34;98103.88;;;24.23;57.69
8573;BME280;4324;42.012;24.872;2022-08-14T04:08:04;98108.50;;;24.12;58.15
8573;BME280;4324;42.012;24.872;2022-08-14T04:10:32;98111.25;;;23.97;58.62
8573;BME280;4324;42.012;24.872;2022-08-14T04:12:59;98123.72;;;23.93;58.90
8573;BME280;4324;42.012;24.872;2022-08-14T04:15:26;98122.38;;;23.80;58.92
8573;BME280;4324;42.012;24.872;2022-08-14T04:17:53;98120.50;;;23.71;59.50
8573;BME280;4324;42.012;24.872;2022-08-14T04:20:21;98128.06;;;23.69;60.23
8573;BME280;4324;42.012;24.872;2022-08-14T04:22:48;98114.03;;;23.51;60.29
8573;BME280;4324;42.012;24.872;2022-08-14T04:25:15;98141.28;;;23.65;60.64
8573;BME280;4324;42.012;24.872;2022-08-14T04:27:45;98139.97;;;23.67;60.54
8573;BME280;4324;42.012;24.872;2022-08-14T04:30:12;98139.16;;;23.72;60.95
8573;BME280;4324;42.012;24.872;2022-08-14T04:32:40;98139.16;;;23.77;61.10
8573;BME280;4324;42.012;24.872;2022-08-14T04:35:07;98136.16;;;23.84;61.07
8573;BME280;4324;42.012;24.872;2022-08-14T04:37:35;98126.69;;;23.86;61.30
8573;BME280;4324;42.012;24.872;2022-08-14T04:40:20;98138.00;;;23.99;61.79
8573;BME280;4324;42.012;24.872;2022-08-14T04:43:05;98122.59;;;24.04;61.51
8573;BME280;4324;42.012;24.872;2022-08-14T04:45:50;98110.69;;;24.10;61.73
8573;BME280;4324;42.012;24.872;2022-08-14T04:48:17;98104.19;;;24.06;61.72
8573;BME280;4324;42.012;24.872;2022-08-14T04:50:49;98106.38;;;24.04;62.04
8573;BME280;4324;42.012;24.872;2022-08-14T04:53:17;98113.66;;;24.09;62.08
8573;BME280;4324;42.012;24.872;2022-08-14T04:55:46;98105.81;;;24.12;61.89
8573;BME280;4324;42.012;24.872;2022-08-14T04:58:15;98105.50;;;24.19;62.22
8573;BME280;4324;42.012;24.872;2022-08-14T05:00:43;98106.28;;;24.30;62.18
8573;BME280;4324;42.012;24.872;2022-08-14T05:03:10;98101.94;;;24.39;61.91
8573;BME280;4324;42.012;24.872;2022-08-14T05:05:38;98091.38;;;24.32;61.85
8573;BME280;4324;42.012;24.872;2022-08-14T05:08:06;98094.88;;;24.38;61.94
8573;BME280;4324;42.012;24.872;2022-08-14T05:10:39;98094.88;;;24.38;61.98
8573;BME280;4324;42.012;24.872;2022-08-14T05:13:06;98097.59;;;24.38;62.44
8573;BME280;4324;42.012;24.872;2022-08-14T05:15:36;98092.47;;;24.42;62.68
8573;BME280;4324;42.012;24.872;2022-08-14T05:18:08;98077.31;;;24.41;62.43
8573;BME280;4324;42.012;24.872;2022-08-14T05:20:38;98078.38;;;24.45;62.30
8573;BME280;4324;42.012;24.872;2022-08-14T05:23:05;98096.44;;;24.59;62.36
8573;BME280;4324;42.012;24.872;2022-08-14T05:25:33;98099.66;;;24.61;62.43
8573;BME280;4324;42.012;24.872;2022-08-14T05:28:13;98091.03;;;24.54;62.50
8573;BME280;4324;42.012;24.872;2022-08-14T05:30:46;98101.84;;;24.59;62.15
8573;BME280;4324;42.012;24.872;2022-08-14T05:33:14;98026.84;;;24.10;62.05
8573;BME280;4324;42.012;24.872;2022-08-14T05:35:43;98099.97;;;24.50;62.19
8573;BME280;4324;42.012;24.872;2022-08-14T05:38:12;98090.56;;;24.42;62.65
8573;BME280;4324;42.012;24.872;2022-08-14T05:40:39;98099.97;;;24.55;62.78
8573;BME280;4324;42.012;24.872;2022-08-14T05:43:07;98099.66;;;24.61;62.54
8573;BME280;4324;42.012;24.872;2022-08-14T05:45:34;98095.88;;;24.62;62.69
8573;BME280;4324;42.012;24.872;2022-08-14T05:48:04;98107.75;;;24.67;62.63
8573;BME280;4324;42.012;24.872;2022-08-14T05:50:32;98100.16;;;24.69;62.34
8573;BME280;4324;42.012;24.872;2022-08-14T05:53:00;98103.41;;;24.71;62.57
8573;BME280;4324;42.012;24.872;2022-08-14T05:55:27;98098.78;;;24.71;62.64
8573;BME280;4324;42.012;24.872;2022-08-14T05:57:56;98100.09;;;24.79;62.72
8573;BME280;4324;42.012;24.872;2022-08-14T06:00:25;98079.56;;;24.73;62.31
8573;BME280;4324;42.012;24.872;2022-08-14T06:02:53;98093.59;;;24.80;62.38
8573;BME280;4324;42.012;24.872;2022-08-14T06:05:22;98080.69;;;24.67;62.38
8573;BME280;4324;42.012;24.872;2022-08-14T06:07:49;98103.06;;;24.82;62.68
8573;BME280;4324;42.012;24.872;2022-08-14T06:10:16;98095.78;;;24.73;62.56
8573;BME280;4324;42.012;24.872;2022-08-14T06:12:43;98030.78;;;24.33;62.70
8573;BME280;4324;42.012;24.872;2022-08-14T06:15:11;98108.50;;;24.77;63.02
8573;BME280;4324;42.012;24.872;2022-08-14T06:17:44;98073.72;;;24.55;62.82
8573;BME280;4324;42.012;24.872;2022-08-14T06:20:12;98081.25;;;24.63;62.47
8573;BME280;4324;42.012;24.872;2022-08-14T06:22:41;98104.91;;;24.87;62.57
8573;BME280;4324;42.012;24.872;2022-08-14T06:25:10;98109.22;;;24.88;62.74
8573;BME280;4324;42.012;24.872;2022-08-14T06:27:38;98103.81;;;24.88;62.66
8573;BME280;4324;42.012;24.872;2022-08-14T06:30:07;98088.16;;;24.85;62.47
8573;BME280;4324;42.012;24.872;2022-08-14T06:32:35;98104.31;;;24.95;62.37
8573;BME280;4324;42.012;24.872;2022-08-14T06:35:03;98109.16;;;24.98;62.36
8573;BME280;4324;42.012;24.872;2022-08-14T06:37:38;98105.84;;;25.06;62.21
8573;BME280;4324;42.012;24.872;2022-08-14T06:40:10;98106.66;;;25.12;61.68
8573;BME280;4324;42.012;24.872;2022-08-14T06:42:38;98097.44;;;25.13;61.57
8573;BME280;4324;42.012;24.872;2022-08-14T06:45:05;98110.19;;;25.13;61.60
8573;BME280;4324;42.012;24.872;2022-08-14T06:47:33;98110.66;;;25.20;61.38
8573;BME280;4324;42.012;24.872;2022-08-14T06:50:01;98115.78;;;25.26;61.38
8573;BME280;4324;42.012;24.872;2022-08-14T06:52:28;98113.34;;;25.25;60.83
8573;BME280;4324;42.012;24.872;2022-08-14T06:54:55;98116.91;;;25.20;61.21
8573;BME280;4324;42.012;24.872;2022-08-14T06:57:24;98119.34;;;25.17;61.24
8573;BME280;4324;42.012;24.872;2022-08-14T06:59:51;98114.72;;;25.22;60.92
8573;BME280;4324;42.012;24.872;2022-08-14T07:02:18;98122.28;;;25.25;61.21
8573;BME280;4324;42.012;24.872;2022-08-14T07:05:03;98111.47;;;25.20;61.10
8573;BME280;4324;42.012;24.872;2022-08-14T07:07:48;98095.53;;;25.14;60.93
8573;BME280;4324;42.012;24.872;2022-08-14T07:10:15;98117.13;;;25.24;61.31
8573;BME280;4324;42.012;24.872;2022-08-14T07:12:43;98116.56;;;25.27;61.42
8573;BME280;4324;42.012;24.872;2022-08-14T07:15:11;98122.53;;;25.29;61.70
8573;BME280;4324;42.012;24.872;2022-08-14T07:17:44;98100.44;;;25.12;61.86
8573;BME280;4324;42.012;24.872;2022-08-14T07:20:11;98116.09;;;25.20;61.87
8573;BME280;4324;42.012;24.872;2022-08-14T07:22:38;98122.06;;;25.17;62.23
8573;BME280;4324;42.012;24.872;2022-08-14T07:25:05;98127.97;;;25.24;62.33
8573;BME280;4324;42.012;24.872;2022-08-14T07:27:32;98120.94;;;25.23;62.26
8573;BME280;4324;42.012;24.872;2022-08-14T07:30:03;98115.03;;;25.16;62.58
8573;BME280;4324;42.012;24.872;2022-08-14T07:32:30;98124.75;;;25.22;62.34
8573;BME280;4324;42.012;24.872;2022-08-14T07:34:57;98122.56;;;25.24;62.65
8573;BME280;4324;42.012;24.872;2022-08-14T07:37:24;98121.50;;;25.20;62.48
8573;BME280;4324;42.012;24.872;2022-08-14T07:39:51;98120.69;;;25.19;62.77
8573;BME280;4324;42.012;24.872;2022-08-14T07:42:18;98116.66;;;25.17;63.16
8573;BME280;4324;42.012;24.872;2022-08-14T07:44:45;98124.16;;;25.25;63.27
8573;BME280;4324;42.012;24.872;2022-08-14T07:47:13;98117.06;;;25.34;63.23
8573;BME280;4324;42.012;24.872;2022-08-14T07:49:41;98109.00;;;25.29;63.07
8573;BME280;4324;42.012;24.872;2022-08-14T07:52:08;98113.34;;;25.25;63.35
8573;BME280;4324;42.012;24.872;2022-08-14T07:54:35;98113.78;;;25.37;62.84
8573;BME280;4324;42.012;24.872;2022-08-14T07:57:02;98111.50;;;25.49;63.07
8573;BME280;4324;42.012;24.872;2022-08-14T07:59:29;98101.63;;;25.64;62.21
8573;BME280;4324;42.012;24.872;2022-08-14T08:01:56;98109.81;;;25.88;62.16
8573;BME280;4324;42.012;24.872;2022-08-14T08:04:25;98107.06;;;25.93;61.60
8573;BME280;4324;42.012;24.872;2022-08-14T08:06:54;98102.13;;;25.95;61.67
8573;BME280;4324;42.012;24.872;2022-08-14T08:09:23;98091.81;;;25.97;61.72
8573;BME280;4324;42.012;24.872;2022-08-14T08:11:52;98097.38;;;26.11;61.22
8573;BME280;4324;42.012;24.872;2022-08-14T08:14:20;98094.22;;;26.22;60.87
8573;BME280;4324;42.012;24.872;2022-08-14T08:16:47;98107.50;;;26.24;60.92
8573;BME280;4324;42.012;24.872;2022-08-14T08:19:14;98087.00;;;26.13;61.07
8573;BME280;4324;42.012;24.872;2022-08-14T08:21:45;98081.31;;;26.14;60.88
8573;BME280;4324;42.012;24.872;2022-08-14T08:24:12;98114.16;;;26.13;60.80
8573;BME280;4324;42.012;24.872;2022-08-14T08:26:39;98102.91;;;26.00;61.08
8573;BME280;4324;42.012;24.872;2022-08-14T08:29:06;98106.84;;;25.84;61.29
8573;BME280;4324;42.012;24.872;2022-08-14T08:31:45;98085.81;;;25.71;61.94
8573;BME280;4324;42.012;24.872;2022-08-14T08:34:12;98104.28;;;25.69;62.06
8573;BME280;4324;42.012;24.872;2022-08-14T08:36:40;98108.19;;;25.57;62.43
8573;BME280;4324;42.012;24.872;2022-08-14T08:39:09;98112.69;;;25.38;62.94
8573;BME280;4324;42.012;24.872;2022-08-14T08:41:40;98122.56;;;25.24;63.11
8573;BME280;4324;42.012;24.872;2022-08-14T08:44:08;98114.03;;;25.01;63.40
8573;BME280;4324;42.012;24.872;2022-08-14T08:46:35;98113.59;;;24.84;64.22
8573;BME280;4324;42.012;24.872;2022-08-14T08:49:02;98122.84;;;24.73;64.35
8573;BME280;4324;42.012;24.872;2022-08-14T08:51:30;98114.31;;;24.55;63.28
8573;BME280;4324;42.012;24.872;2022-08-14T08:53:59;98121.63;;;24.55;62.97
8573;BME280;4324;42.012;24.872;2022-08-14T08:56:39;98113.81;;;24.43;64.01
8573;BME280;4324;42.012;24.872;2022-08-14T08:59:22;98101.66;;;24.35;64.46
8573;BME280;4324;42.012;24.872;2022-08-14T09:01:50;98124.09;;;24.51;64.14
8573;BME280;4324;42.012;24.872;2022-08-14T09:04:18;98119.47;;;24.47;64.77
8573;BME280;4324;42.012;24.872;2022-08-14T09:06:46;98110.59;;;24.31;65.99
8573;BME280;4324;42.012;24.872;2022-08-14T09:09:21;98120.13;;;24.13;66.39
8573;BME280;4324;42.012;24.872;2022-08-14T09:11:52;98135.31;;;23.99;65.54
8573;BME280;4324;42.012;24.872;2022-08-14T09:14:22;98139.16;;;23.77;66.03
8573;BME280;4324;42.012;24.872;2022-08-14T09:16:50;98142.94;;;23.56;67.41
8573;BME280;4324;42.012;24.872;2022-08-14T09:19:17;98123.47;;;23.33;68.65
8573;BME280;4324;42.012;24.872;2022-08-14T09:21:45;98141.56;;;23.53;68.81
8573;BME280;4324;42.012;24.872;2022-08-14T09:24:13;98133.72;;;23.47;68.68
8573;BME280;4324;42.012;24.872;2022-08-14T09:26:42;98124.84;;;23.41;69.58
8573;BME280;4324;42.012;24.872;2022-08-14T09:29:11;98118.91;;;23.44;70.25
8573;BME280;4324;42.012;24.872;2022-08-14T09:31:42;98126.72;;;23.46;70.43
8573;BME280;4324;42.012;24.872;2022-08-14T09:34:17;98101.31;;;23.31;70.72
8573;BME280;4324;42.012;24.872;2022-08-14T09:40:03;98119.97;;;23.48;71.40
8573;BME280;4324;42.012;24.872;2022-08-14T09:42:37;98117.25;;;23.43;70.94
8573;BME280;4324;42.012;24.872;2022-08-14T09:45:12;98128.06;;;23.43;72.16
8573;BME280;4324;42.012;24.872;2022-08-14T09:47:42;98129.69;;;23.39;72.01
8573;BME280;4324;42.012;24.872;2022-08-14T09:50:21;98080.28;;;23.03;73.12
8573;BME280;4324;42.012;24.872;2022-08-14T09:52:51;98130.25;;;23.26;73.86
8573;BME280;4324;42.012;24.872;2022-08-14T09:55:20;98132.09;;;23.20;74.02
8573;BME280;4324;42.012;24.872;2022-08-14T09:57:49;98115.09;;;22.99;74.76
8573;BME280;4324;42.012;24.872;2022-08-14T10:00:21;98095.59;;;22.82;74.69
8573;BME280;4324;42.012;24.872;2022-08-14T10:03:05;98122.66;;;22.97;74.73
8573;BME280;4324;42.012;24.872;2022-08-14T10:05:34;98116.16;;;22.93;73.59
8573;BME280;4324;42.012;24.872;2022-08-14T10:08:02;98099.09;;;22.77;74.73
8573;BME280;4324;42.012;24.872;2022-08-14T10:10:31;98105.84;;;22.75;74.22
8573;BME280;4324;42.012;24.872;2022-08-14T10:12:59;98103.66;;;22.66;74.55
8573;BME280;4324;42.012;24.872;2022-08-14T10:15:29;98062.00;;;22.32;73.74
8573;BME280;4324;42.012;24.872;2022-08-14T10:18:05;98083.09;;;22.45;75.79
8573;BME280;4324;42.012;24.872;2022-08-14T10:20:37;98076.09;;;22.49;76.81
8573;BME280;4324;42.012;24.872;2022-08-14T10:23:15;98074.50;;;22.53;77.67
8573;BME280;4324;42.012;24.872;2022-08-14T10:25:46;98064.50;;;22.49;78.18
8573;BME280;4324;42.012;24.872;2022-08-14T10:28:15;98075.31;;;22.59;79.38
8573;BME280;4324;42.012;24.872;2022-08-14T10:30:46;98082.09;;;22.66;79.82
8573;BME280;4324;42.012;24.872;2022-08-14T10:33:25;98092.94;;;22.92;80.74
8573;BME280;4324;42.012;24.872;2022-08-14T10:35:54;98085.66;;;23.08;80.99
8573;BME280;4324;42.012;24.872;2022-08-14T10:38:28;98080.53;;;23.37;80.85
8573;BME280;4324;42.012;24.872;2022-08-14T10:41:08;98079.72;;;23.52;80.51
8573;BME280;4324;42.012;24.872;2022-08-14T10:43:38;98079.44;;;23.58;80.49
8573;BME280;4324;42.012;24.872;2022-08-14T10:46:13;98083.75;;;23.59;80.93
8573;BME280;4324;42.012;24.872;2022-08-14T10:48:41;98077.25;;;23.60;81.18
8573;BME280;4324;42.012;24.872;2022-08-14T10:51:08;98069.16;;;23.71;81.92
8573;BME280;4324;42.012;24.872;2022-08-14T10:53:35;98063.16;;;23.84;81.61
8573;BME280;4324;42.012;24.872;2022-08-14T10:56:09;98055.03;;;23.94;82.57
8573;BME280;4324;42.012;24.872;2022-08-14T10:58:38;98049.59;;;24.04;82.51
8573;BME280;4324;42.012;24.872;2022-08-14T11:01:05;98040.63;;;24.14;83.06
8573;BME280;4324;42.012;24.872;2022-08-14T11:03:38;98037.25;;;24.37;83.70
8573;BME280;4324;42.012;24.872;2022-08-14T11:06:14;98045.50;;;24.61;82.96
8573;BME280;4324;42.012;24.872;2022-08-14T11:08:43;98040.78;;;24.82;82.58
8573;BME280;4324;42.012;24.872;2022-08-14T11:11:11;98041.94;;;25.05;82.97
8573;BME280;4324;42.012;24.872;2022-08-14T11:13:40;98036.88;;;25.33;82.60
8573;BME280;4324;42.012;24.872;2022-08-14T11:16:11;98040.06;;;25.64;82.43
8573;BME280;4324;42.012;24.872;2022-08-14T11:18:43;98044.84;;;26.01;82.04
8573;BME280;4324;42.012;24.872;2022-08-14T11:21:14;98041.88;;;26.22;80.59
8573;BME280;4324;42.012;24.872;2022-08-14T11:23:44;98035.84;;;26.25;79.21
8573;BME280;4324;42.012;24.872;2022-08-14T11:26:13;98044.88;;;26.20;79.12
8573;BME280;4324;42.012;24.872;2022-08-14T11:28:45;98045.28;;;26.09;78.54
8573;BME280;4324;42.012;24.872;2022-08-14T11:31:15;97976.53;;;25.51;77.91
8573;BME280;4324;42.012;24.872;2022-08-14T11:33:47;98016.81;;;25.58;77.74
8573;BME280;4324;42.012;24.872;2022-08-14T11:36:14;98042.66;;;25.50;77.88
8573;BME280;4324;42.012;24.872;2022-08-14T11:38:43;98042.19;;;25.14;77.60
8573;BME280;4324;42.012;24.872;2022-08-14T11:41:12;98056.09;;;24.97;78.33
8573;BME280;4324;42.012;24.872;2022-08-14T11:43:41;98063.25;;;24.83;79.29
8573;BME280;4324;42.012;24.872;2022-08-14T11:46:08;98051.44;;;24.69;79.79
8573;BME280;4324;42.012;24.872;2022-08-14T11:48:49;98054.44;;;24.67;80.09
8573;BME280;4324;42.012;24.872;2022-08-14T11:51:18;98071.41;;;24.78;79.91
8573;BME280;4324;42.012;24.872;2022-08-14T11:53:53;98064.94;;;24.74;80.26
8573;BME280;4324;42.012;24.872;2022-08-14T11:56:20;98064.34;;;24.77;80.53
8573;BME280;4324;42.012;24.872;2022-08-14T11:58:52;98058.94;;;24.77;80.28
8573;BME280;4324;42.012;24.872;2022-08-14T12:01:25;98039.84;;;24.63;80.74
8573;BME280;4324;42.012;24.872;2022-08-14T12:03:55;98049.50;;;24.74;80.51
8573;BME280;4324;42.012;24.872;2022-08-14T12:06:24;98060.34;;;24.74;80.20
8573;BME280;4324;42.012;24.872;2022-08-14T12:08:55;98058.44;;;24.75;79.88
8573;BME280;4324;42.012;24.872;2022-08-14T12:11:22;98067.06;;;24.77;79.62
8573;BME280;4324;42.012;24.872;2022-08-14T12:13:49;98075.53;;;24.70;80.02
8573;BME280;4324;42.012;24.872;2022-08-14T12:16:16;98070.22;;;24.50;78.95
8573;BME280;4324;42.012;24.872;2022-08-14T12:18:47;98058.09;;;24.32;78.82
8573;BME280;4324;42.012;24.872;2022-08-14T12:21:18;98074.91;;;24.29;78.66
8573;BME280;4324;42.012;24.872;2022-08-14T12:23:53;98076.06;;;24.12;78.78
8573;BME280;4324;42.012;24.872;2022-08-14T12:26:25;98070.44;;;23.94;78.96
8573;BME280;4324;42.012;24.872;2022-08-14T12:29:04;98080.72;;;23.91;79.35
8573;BME280;4324;42.012;24.872;2022-08-14T12:31:33;98092.91;;;23.89;79.50
8573;BME280;4324;42.012;24.872;2022-08-14T12:34:02;98103.19;;;23.82;79.81
8573;BME280;4324;42.012;24.872;2022-08-14T12:36:31;98122.69;;;23.74;79.59
8573;BME280;4324;42.012;24.872;2022-08-14T12:38:59;98131.31;;;23.55;80.03
8573;BME280;4324;42.012;24.872;2022-08-14T12:41:28;98137.25;;;23.37;80.37
8573;BME280;4324;42.012;24.872;2022-08-14T12:43:57;98132.38;;;23.08;81.55
8573;BME280;4324;42.012;24.872;2022-08-14T12:46:29;98126.91;;;22.83;83.53
8573;BME280;4324;42.012;24.872;2022-08-14T12:48:58;98119.78;;;22.46;85.79
8573;BME280;4324;42.012;24.872;2022-08-14T12:51:26;98135.69;;;22.42;88.92
8573;BME280;4324;42.012;24.872;2022-08-14T12:53:56;98126.19;;;22.30;91.51
8573;BME280;4324;42.012;24.872;2022-08-14T12:56:24;98107.00;;;22.16;94.86
8573;BME280;4324;42.012;24.872;2022-08-14T12:58:53;98114.28;;;22.15;97.32
8573;BME280;4324;42.012;24.872;2022-08-14T13:01:22;98123.94;;;22.11;99.51
8573;BME280;4324;42.012;24.872;2022-08-14T13:03:51;98128.25;;;22.12;100.00
8573;BME280;4324;42.012;24.872;2022-08-14T13:06:19;98122.31;;;22.10;100.00
8573;BME280;4324;42.012;24.872;2022-08-14T13:08:48;98126.59;;;22.06;100.00
8573;BME280;4324;42.012;24.872;2022-08-14T13:11:17;98135.50;;;22.07;100.00
8573;BME280;4324;42.012;24.872;2022-08-14T13:13:46;98146.00;;;22.08;100.00
8573;BME280;4324;42.012;24.872;2022-08-14T13:16:13;98144.09;;;22.04;100.00
8573;BME280;4324;42.012;24.872;2022-08-14T13:18:42;98153.53;;;22.01;100.00
8573;BME280;4324;42.012;24.872;2022-08-14T13:21:12;98150.81;;;22.01;100.00
8573;BME280;4324;42.012;24.872;2022-08-14T13:23:40;98140.84;;;22.02;100.00